createdAt,value
2019-04-04T00:32:35.964Z,74.20
2019-04-04T00:35:06.470Z,74.60
2019-04-04T00:37:46.064Z,74.80
2019-04-04T00:40:16.238Z,75.00
2019-04-04T00:42:47.856Z,74.30
2019-04-04T00:45:18.245Z,74.60
2019-04-04T00:47:50.714Z,74.40
2019-04-04T00:50:28.846Z,74.40
2019-04-04T00:52:59.030Z,74.70
2019-04-04T00:55:29.314Z,75.10
2019-04-04T00:57:59.511Z,75.20
2019-04-04T01:00:30.150Z,75.00
2019-04-04T01:03:00.552Z,75.40
2019-04-04T02:49:33.478Z,76.40
2019-04-04T02:52:03.670Z,76.60
2019-04-04T02:54:33.807Z,76.80
2019-04-04T02:57:07.974Z,76.90
2019-04-04T02:59:35.557Z,77.10
2019-04-04T03:02:06.127Z,77.10
2019-04-04T03:04:36.463Z,76.60
2019-04-04T03:07:07.099Z,76.60
2019-04-04T03:09:42.046Z,76.90
2019-04-04T03:12:09.307Z,77.40
2019-04-04T03:14:42.276Z,77.60
2019-04-04T03:17:13.935Z,78.00
2019-04-04T03:19:44.689Z,77.60
2019-04-04T03:22:15.074Z,77.20
2019-04-04T03:24:45.428Z,77.40
2019-04-04T03:27:15.413Z,77.10
2019-04-04T03:29:45.556Z,77.00
2019-04-04T03:32:16.740Z,76.90
2019-04-04T03:34:50.103Z,76.90
2019-04-04T03:37:19.236Z,76.80
2019-04-04T03:39:51.887Z,76.90
2019-04-04T03:42:21.082Z,77.20
2019-04-04T03:44:53.441Z,77.50
2019-04-04T03:47:24.184Z,78.10
2019-04-04T03:49:57.732Z,78.30
2019-04-04T03:52:43.320Z,78.80
2019-04-04T03:55:28.028Z,78.90
2019-04-04T03:57:57.934Z,78.70
2019-04-04T04:00:32.279Z,79.10
2019-04-04T04:03:02.816Z,78.90
2019-04-04T04:05:36.706Z,79.30
2019-04-04T04:08:07.642Z,79.80
2019-04-04T04:10:39.035Z,79.80
2019-04-04T04:13:09.349Z,80.20
2019-04-04T04:15:39.935Z,80.70
2019-04-04T04:18:10.157Z,81.00
2019-04-04T04:20:40.222Z,81.10
2019-04-04T04:23:10.419Z,81.50
2019-04-04T04:25:42.196Z,81.90
2019-04-04T04:28:13.494Z,82.00
2019-04-04T04:30:43.548Z,81.90
2019-04-04T04:33:13.635Z,82.00
2019-04-04T04:35:43.832Z,81.60
2019-04-04T04:38:13.980Z,81.40
2019-04-04T04:40:46.862Z,81.10
2019-04-04T04:43:16.950Z,80.90
2019-04-04T04:45:48.539Z,80.40
2019-04-04T04:48:18.687Z,80.40
2019-04-04T04:50:48.759Z,80.50
2019-04-04T04:53:19.643Z,80.40
2019-04-04T04:55:49.906Z,80.60
2019-04-04T04:58:20.152Z,80.00
2019-04-04T05:00:50.160Z,79.10
2019-04-04T05:03:24.910Z,79.00
2019-04-04T05:05:54.993Z,79.30
2019-04-04T05:08:25.251Z,79.00
2019-04-04T05:10:55.381Z,78.50
2019-04-04T05:13:28.711Z,78.50
2019-04-04T05:15:59.338Z,78.00
2019-04-04T05:18:30.861Z,77.80
2019-04-04T05:21:01.850Z,78.00
2019-04-04T05:23:32.718Z,78.40
2019-04-04T05:26:03.396Z,77.40
2019-04-04T05:28:33.574Z,77.70
2019-04-04T05:31:03.581Z,77.20
2019-04-04T05:33:36.525Z,76.80
2019-04-04T05:36:06.736Z,76.90
2019-04-04T05:38:38.356Z,76.40
2019-04-04T05:41:08.502Z,75.80
2019-04-04T05:43:38.813Z,75.80
2019-04-04T05:46:16.808Z,75.50
2019-04-04T05:48:48.555Z,75.00
2019-04-04T05:51:18.794Z,75.10
2019-04-04T05:53:49.051Z,74.20
2019-04-04T05:59:23.870Z,74.60
2019-04-04T06:02:03.837Z,75.00
2019-04-04T06:04:33.617Z,75.60
2019-04-04T06:07:04.425Z,75.50
2019-04-04T06:09:35.699Z,75.30
2019-04-04T06:12:05.782Z,75.70
2019-04-04T06:14:35.930Z,75.80
2019-04-04T06:17:07.221Z,75.40
2019-04-04T06:19:37.758Z,75.60
2019-04-04T06:22:07.967Z,76.10
2019-04-04T06:24:38.222Z,76.70
2019-04-04T06:27:09.149Z,76.30
2019-04-04T06:29:40.108Z,76.30
2019-04-04T06:32:10.321Z,76.40
2019-04-04T06:34:44.304Z,77.20
2019-04-04T06:37:15.398Z,75.80
2019-04-04T06:39:49.796Z,76.30
2019-04-04T06:42:19.889Z,77.20
2019-04-04T06:44:50.089Z,76.90
2019-04-04T06:47:20.201Z,78.10
2019-04-04T06:49:50.301Z,77.90
2019-04-04T06:52:24.326Z,78.10
2019-04-04T06:54:57.377Z,77.60
2019-04-04T06:57:27.783Z,77.80
2019-04-04T06:59:59.490Z,77.80
2019-04-04T07:02:33.698Z,77.80
2019-04-04T07:05:06.311Z,78.20
2019-04-04T07:07:36.991Z,78.00
2019-04-04T07:10:07.554Z,77.90
2019-04-04T07:12:38.795Z,77.80
2019-04-04T07:15:15.567Z,77.50
2019-04-04T07:17:43.828Z,77.40
2019-04-04T07:20:16.675Z,77.10
2019-04-04T07:22:45.880Z,77.00
2019-04-04T07:25:17.570Z,76.20
2019-04-04T07:27:48.055Z,75.70
2019-04-04T07:30:18.385Z,74.90
2019-04-04T07:32:48.592Z,75.30
2019-04-04T07:38:12.486Z,75.10
2019-04-04T07:40:44.457Z,74.60
2019-04-04T07:43:19.369Z,74.50
2019-04-04T07:45:51.057Z,74.90
2019-04-04T07:48:21.296Z,74.40
2019-04-04T07:50:51.620Z,74.30
2019-04-04T07:53:22.626Z,73.60
2019-04-04T07:55:55.359Z,73.60
2019-04-04T07:58:25.526Z,72.90
2019-04-04T08:00:58.524Z,72.30
2019-04-04T08:03:28.634Z,71.80
2019-04-04T08:05:58.975Z,71.40
2019-04-04T08:08:29.196Z,70.30
2019-04-04T08:10:59.287Z,70.40
2019-04-04T08:13:29.460Z,69.60
2019-04-04T08:16:04.705Z,69.30
2019-04-04T08:18:38.003Z,69.20
2019-04-04T08:21:07.998Z,68.60
2019-04-04T08:23:40.670Z,67.90
2019-04-04T08:26:17.450Z,66.20
2019-04-04T08:28:47.650Z,65.80
2019-04-04T08:31:18.990Z,66.20
2019-04-04T08:33:49.124Z,64.90
2019-04-04T08:36:21.369Z,65.80
2019-04-04T08:38:53.654Z,64.50
2019-04-04T08:41:25.437Z,65.40
2019-04-04T08:43:58.134Z,64.10
2019-04-04T08:46:29.772Z,65.50
2019-04-04T08:49:01.289Z,64.60
2019-04-04T08:51:37.850Z,64.30
2019-04-04T08:54:26.802Z,64.10
2019-04-04T08:57:10.566Z,64.40
2019-04-04T09:00:05.474Z,64.60
2019-04-04T09:02:39.843Z,64.30
2019-04-04T09:05:33.274Z,64.80
2019-04-04T09:08:07.863Z,64.80
2019-04-04T09:10:39.411Z,64.50
2019-04-04T09:13:11.776Z,64.70
2019-04-04T09:15:41.837Z,64.70
2019-04-04T09:18:12.116Z,64.50
2019-04-04T09:20:46.867Z,63.60
2019-04-04T09:23:18.667Z,63.40
2019-04-04T09:25:50.414Z,62.90
2019-04-04T09:28:22.028Z,62.80
2019-04-04T09:30:53.875Z,63.40
2019-04-04T09:33:24.198Z,63.40
2019-04-04T09:35:59.659Z,62.20
2019-04-04T09:39:01.494Z,61.90
2019-04-04T09:41:20.394Z,61.40
2019-04-04T09:47:04.629Z,62.50
2019-04-04T09:49:23.340Z,63.70
2019-04-04T09:52:10.863Z,64.30
2019-04-04T09:54:40.857Z,64.40
2019-04-04T09:57:18.647Z,63.60
2019-04-04T09:59:52.817Z,63.10
2019-04-04T10:02:26.294Z,61.70
2019-04-04T10:04:56.212Z,62.70
2019-04-04T10:07:26.871Z,62.00
2019-04-04T10:09:57.401Z,62.40
2019-04-04T10:12:29.530Z,61.40
2019-04-04T10:15:00.188Z,64.30
2019-04-04T10:17:30.254Z,63.00
2019-04-04T10:20:00.635Z,64.20
2019-04-04T10:22:30.799Z,64.80
2019-04-04T10:25:00.874Z,65.00
2019-04-04T10:27:31.002Z,65.00
2019-04-04T10:30:01.339Z,65.50
2019-04-04T10:32:34.224Z,64.70
2019-04-04T10:35:06.437Z,64.30
2019-04-04T10:37:36.600Z,66.60
2019-04-04T10:40:08.550Z,65.30
2019-04-04T10:42:38.701Z,65.80
2019-04-04T10:45:11.169Z,64.90
2019-04-04T10:47:41.917Z,63.90
2019-04-04T10:50:13.719Z,63.80
2019-04-04T10:52:43.876Z,63.20
2019-04-04T10:55:14.637Z,62.70
2019-04-04T10:57:46.078Z,62.10
2019-04-04T11:00:24.790Z,62.70
2019-04-04T11:02:57.443Z,61.80
2019-04-04T11:05:28.233Z,63.10
2019-04-04T11:08:02.088Z,63.40
2019-04-04T11:10:31.835Z,64.50
2019-04-04T11:13:03.928Z,64.50
2019-04-04T11:15:37.529Z,65.00
2019-04-04T11:18:15.861Z,66.30
2019-04-04T11:21:15.689Z,66.90
2019-04-04T11:24:15.022Z,68.60
2019-04-04T11:37:21.355Z,72.70
2019-04-04T11:39:54.981Z,72.30
2019-04-04T11:42:37.545Z,72.60
2019-04-04T11:48:11.886Z,69.90
2019-04-04T11:50:46.122Z,71.60
2019-04-04T11:53:17.135Z,72.70
2019-04-04T11:55:53.418Z,71.80
2019-04-04T11:58:32.429Z,71.70
2019-04-04T12:01:13.991Z,74.40
2019-04-04T12:03:54.005Z,73.10
2019-04-04T12:06:25.524Z,75.00
2019-04-04T12:08:55.772Z,75.10
2019-04-04T12:11:25.906Z,73.40
2019-04-04T12:13:56.715Z,74.00
2019-04-04T12:16:26.944Z,73.90
2019-04-04T12:18:57.141Z,75.10
2019-04-04T12:21:27.187Z,75.40
2019-04-04T12:23:58.711Z,75.80
2019-04-04T12:26:29.285Z,76.50
2019-04-04T12:28:59.476Z,75.40
2019-04-04T12:31:29.530Z,74.90
2019-04-04T12:34:01.984Z,74.80
2019-04-04T12:36:31.474Z,75.80
2019-04-04T12:39:01.870Z,75.30
2019-04-04T12:41:34.128Z,75.60
2019-04-04T12:44:07.411Z,75.60
2019-04-04T12:46:37.397Z,75.30
2019-04-04T12:49:07.511Z,73.50
2019-04-04T12:51:37.646Z,73.60
2019-04-04T12:54:07.835Z,72.70
2019-04-04T12:56:37.983Z,73.00
2019-04-04T12:59:12.740Z,71.70
2019-04-04T13:01:48.009Z,71.70
2019-04-04T13:04:31.057Z,71.20
2019-04-04T13:06:54.134Z,63.70
2019-04-04T13:09:24.223Z,63.60
2019-04-04T13:11:54.410Z,60.50
2019-04-04T13:14:24.507Z,59.20
2019-04-04T13:16:54.638Z,60.20
2019-04-04T13:19:24.684Z,57.60
2019-04-04T13:21:55.007Z,57.50
2019-04-04T13:24:25.817Z,57.20
2019-04-04T13:26:55.937Z,57.90
2019-04-04T13:29:30.039Z,58.40
2019-04-04T13:32:07.573Z,58.10
2019-04-04T13:34:37.775Z,59.20
2019-04-04T13:37:17.302Z,64.80
2019-04-04T13:39:50.235Z,68.40
2019-04-04T13:42:21.428Z,70.50
2019-04-04T13:44:52.826Z,72.60
2019-04-04T13:47:24.268Z,73.60
2019-04-04T13:49:54.473Z,73.30
2019-04-04T13:52:26.447Z,73.20
2019-04-04T13:54:56.484Z,73.60
2019-04-04T13:57:26.916Z,75.80
2019-04-04T13:59:56.992Z,77.10
2019-04-04T14:02:27.428Z,78.50
2019-04-04T14:05:09.796Z,78.30
2019-04-04T14:07:32.215Z,80.00
2019-04-04T14:10:05.201Z,78.50
2019-04-04T14:12:35.553Z,79.50
2019-04-04T14:15:22.255Z,79.80
2019-04-04T14:17:54.097Z,79.10
2019-04-04T14:20:25.687Z,70.60
2019-04-04T14:23:03.610Z,72.00
2019-04-04T14:26:32.097Z,71.40
2019-04-04T14:29:04.643Z,73.10
2019-04-04T14:31:35.000Z,76.40
2019-04-04T14:34:05.243Z,75.30
2019-04-04T14:36:35.418Z,76.20
2019-04-04T14:39:33.532Z,77.00
2019-04-04T14:42:05.830Z,77.70
2019-04-04T14:44:36.211Z,78.00
2019-04-04T14:47:24.146Z,79.40
2019-04-04T14:49:54.516Z,80.90
2019-04-04T14:52:24.812Z,81.10
2019-04-04T14:54:57.106Z,82.10
2019-04-04T14:57:27.222Z,83.00
2019-04-04T15:02:51.766Z,84.00
2019-04-04T15:05:22.018Z,84.00
2019-04-04T15:07:52.245Z,83.70
2019-04-04T15:10:22.485Z,83.60
2019-04-04T15:12:52.515Z,84.10
2019-04-04T15:15:26.088Z,82.70
2019-04-04T15:17:54.914Z,81.60
2019-04-04T15:20:44.788Z,80.70
2019-04-04T15:23:14.946Z,80.90
2019-04-04T15:25:45.154Z,79.80
2019-04-04T15:28:15.232Z,78.60
2019-04-04T15:30:46.798Z,80.90
2019-04-04T15:33:16.853Z,80.20
2019-04-04T15:35:47.285Z,80.30
2019-04-04T15:38:17.624Z,80.30
2019-04-04T15:40:47.908Z,81.20
2019-04-04T15:43:18.138Z,82.70
2019-04-04T15:45:48.276Z,83.70
2019-04-04T15:48:18.467Z,83.60
2019-04-04T15:50:48.717Z,84.60
2019-04-04T15:53:18.808Z,85.70
2019-04-04T15:55:48.847Z,85.20
2019-04-04T15:58:19.042Z,86.20
2019-04-04T16:00:49.186Z,86.50
2019-04-04T16:03:19.458Z,87.60
2019-04-04T16:05:51.274Z,88.00
2019-04-04T16:08:22.494Z,87.50
2019-04-04T16:10:53.301Z,88.30
2019-04-04T16:13:23.909Z,89.10
2019-04-04T16:15:54.053Z,87.60
2019-04-04T16:18:24.261Z,88.60
2019-04-04T16:20:54.583Z,90.20
2019-04-04T16:23:24.689Z,89.00
2019-04-04T16:26:12.551Z,89.10
2019-04-04T16:28:42.758Z,89.50
2019-04-04T16:31:12.924Z,89.10
2019-04-04T16:36:35.239Z,88.70
2019-04-04T16:39:07.898Z,87.80
2019-04-04T16:41:38.113Z,88.70
2019-04-04T16:44:08.337Z,89.00
2019-04-04T16:46:38.471Z,89.50
2019-04-04T16:49:10.452Z,89.20
2019-04-04T16:51:42.311Z,89.20
2019-04-04T16:54:12.493Z,90.00
2019-04-04T16:56:42.887Z,89.50
2019-04-04T16:59:13.093Z,89.20
2019-04-04T17:01:44.834Z,90.30
2019-04-04T17:04:14.977Z,90.40
2019-04-04T17:06:45.061Z,90.40
2019-04-04T17:09:15.322Z,90.50
2019-04-04T17:11:45.503Z,90.80
2019-04-04T17:14:15.713Z,91.10
2019-04-04T17:16:48.733Z,91.10
2019-04-04T17:19:20.518Z,91.30
2019-04-04T17:21:50.645Z,91.30
2019-04-04T17:24:20.846Z,91.30
2019-04-04T17:26:50.965Z,91.60
2019-04-04T17:29:21.192Z,91.30
2019-04-04T17:31:52.575Z,92.00
2019-04-04T17:37:17.731Z,91.70
2019-04-04T17:42:41.755Z,91.30
2019-04-04T17:45:17.526Z,91.40
2019-04-04T17:47:47.823Z,91.20
2019-04-04T17:50:19.437Z,91.40
2019-04-04T17:52:58.359Z,91.40
2019-04-04T17:55:49.391Z,91.70
2019-04-04T17:58:20.879Z,91.40
2019-04-04T18:00:51.121Z,91.40
2019-04-04T18:03:25.319Z,91.40
2019-04-04T18:05:55.555Z,91.60
2019-04-04T18:08:26.642Z,91.80
2019-04-04T18:10:58.775Z,92.10
2019-04-04T18:13:29.067Z,91.50
2019-04-04T18:16:00.828Z,92.10
2019-04-04T18:18:30.826Z,92.20
2019-04-04T18:21:09.381Z,92.30
2019-04-04T18:23:39.537Z,92.20
2019-04-04T18:26:10.148Z,91.80
2019-04-04T18:28:40.205Z,91.70
2019-04-04T18:31:10.247Z,90.70
2019-04-04T18:33:41.301Z,90.60
2019-04-04T18:36:11.648Z,90.30
2019-04-04T18:38:41.914Z,90.10
2019-04-04T18:41:11.983Z,89.60
2019-04-04T18:43:42.135Z,86.40
2019-04-04T18:46:12.431Z,88.10
2019-04-04T18:48:42.589Z,90.40
2019-04-04T18:51:12.735Z,90.20
2019-04-04T18:53:42.959Z,90.70
2019-04-04T18:56:13.464Z,90.50
2019-04-04T18:58:43.968Z,90.20
2019-04-04T19:01:14.123Z,89.50
2019-04-04T19:03:44.325Z,88.80
2019-04-04T19:06:14.553Z,89.40
2019-04-04T19:08:44.615Z,88.20
2019-04-04T19:11:16.382Z,88.50
2019-04-04T19:14:03.784Z,89.60
2019-04-04T19:16:36.609Z,89.80
2019-04-04T19:19:10.047Z,90.50
2019-04-04T19:21:39.373Z,90.30
2019-04-04T19:24:13.226Z,90.70
2019-04-04T19:26:43.397Z,90.90
2019-04-04T19:29:13.454Z,90.60
2019-04-04T19:31:44.152Z,90.60
2019-04-04T19:34:14.310Z,90.00
2019-04-04T19:36:44.608Z,89.50
2019-04-04T19:39:16.655Z,90.10
2019-04-04T19:41:46.774Z,90.60
2019-04-04T19:44:17.839Z,90.40
2019-04-04T19:46:48.272Z,90.70
2019-04-04T19:49:18.343Z,91.00
2019-04-04T19:51:48.399Z,90.60
2019-04-04T19:54:19.386Z,90.60
2019-04-04T19:56:49.831Z,90.40
2019-04-04T19:59:20.108Z,89.40
2019-04-04T20:01:50.333Z,89.80
2019-04-04T20:04:21.348Z,90.20
2019-04-04T20:06:51.465Z,90.00
2019-04-04T20:09:21.534Z,89.50
2019-04-04T20:11:53.302Z,89.60
2019-04-04T20:14:26.364Z,88.20
2019-04-04T20:16:55.265Z,88.20
2019-04-04T20:19:25.464Z,88.40
2019-04-04T20:21:56.573Z,89.20
2019-04-04T20:24:27.393Z,88.90
2019-04-04T20:26:57.560Z,88.10
2019-04-04T20:29:29.157Z,88.50
2019-04-04T20:32:00.196Z,88.80
2019-04-04T20:34:30.316Z,88.30
2019-04-04T20:37:02.054Z,88.60
2019-04-04T20:39:32.301Z,88.60
2019-04-04T20:42:02.538Z,87.70
2019-04-04T20:44:33.730Z,89.00
2019-04-04T20:47:04.014Z,89.30
2019-04-04T20:49:35.409Z,89.00
2019-04-04T20:52:05.547Z,89.80
2019-04-04T20:54:39.804Z,89.60
2019-04-04T20:57:09.905Z,89.80
2019-04-04T20:59:41.803Z,89.20
2019-04-04T21:02:12.531Z,90.60
2019-04-04T21:04:45.116Z,90.50
2019-04-04T21:07:18.491Z,90.40
2019-04-04T21:09:47.912Z,90.20
2019-04-04T21:12:17.998Z,90.30
2019-04-04T21:15:07.675Z,91.10
2019-04-04T21:17:37.910Z,90.70
2019-04-04T21:20:08.132Z,90.40
2019-04-04T21:22:38.231Z,90.10
2019-04-04T21:25:08.447Z,90.80
2019-04-04T21:27:38.765Z,90.70
2019-04-04T21:30:09.962Z,90.30
2019-04-04T21:32:40.003Z,90.90
2019-04-04T21:35:11.623Z,91.10
2019-04-04T21:37:41.745Z,91.00
2019-04-04T21:40:12.105Z,91.50
2019-04-04T21:42:42.741Z,91.00
2019-04-04T21:45:15.308Z,90.30
2019-04-04T21:47:45.989Z,90.30
2019-04-04T21:50:16.918Z,90.30
2019-04-04T21:52:48.732Z,90.40
2019-04-04T21:55:19.270Z,90.40
2019-04-04T21:57:49.732Z,89.90
2019-04-04T22:00:20.939Z,90.10
2019-04-04T22:02:53.154Z,90.40
2019-04-04T22:05:30.470Z,90.40
2019-04-04T22:08:02.018Z,90.60
2019-04-04T22:10:42.542Z,91.20
2019-04-04T22:13:15.401Z,91.50
2019-04-04T22:15:49.582Z,91.70
2019-04-04T22:18:20.294Z,91.90
2019-04-04T22:20:50.317Z,92.20
2019-04-04T22:23:21.903Z,92.40
2019-04-04T22:25:54.940Z,92.60
2019-04-04T22:28:45.735Z,92.50
2019-04-04T22:31:15.931Z,92.40
2019-04-04T22:33:45.894Z,92.20
2019-04-04T22:36:16.406Z,92.10
2019-04-04T22:38:48.933Z,92.20
2019-04-04T22:41:18.806Z,92.20
2019-04-04T22:44:04.701Z,92.30
2019-04-04T22:46:36.994Z,92.30
2019-04-04T22:49:07.403Z,92.10
2019-04-04T22:51:37.917Z,92.00
2019-04-04T22:54:09.852Z,91.80
2019-04-04T22:56:45.543Z,91.70
